マドリード/バラハス の空港の天気 - METARとTAF

マドリード・バラハス国際空港 ( LEMD / MAD ) - スペイン マドリード
飛行場実況気象(Metar)
観測時間07/18 14:00 CEST (07/18 12:00 UTC)
風向・風速西南西 6m/s
視程10km以上
天気現象
少しの雲 雲底高度 2440m
気温32℃
湿度24%
気圧1016hPa
METARLEMD 181200Z 24012KT 210V300 9999 FEW080 32/09 Q1016 NOSIG
過去の天気等 Google飛行場航空写真 Wunderground天気予報

過去48時間のMETAR

飛行場予報(TAF)
発表時間: 7/18 13:00 CEST (7/18 11:00 UTC)
予報対象時間: 18日14時 CEST ~ 19日20時 CEST
風向・風速不定 3m/s
視程10km以上
なし
18日14時 CEST ~ 18日15時 CEST に徐々に
風向・風速南西 6m/s
18日14時 CEST ~ 18日21時 CEST に 確率 30% で一時的に
風向・風速南西 8m/s 瞬間風速 13m/s
19日0時 CEST ~ 19日11時 CEST に一時的に
風向・風速不定 3m/s
19日11時 CEST ~ 19日13時 CEST に徐々に
風向・風速南西 6m/s
19日14時 CEST ~ 19日20時 CEST に 確率 30% で一時的に
風向・風速南西 8m/s 瞬間風速 13m/s
TAF LEMD 181100Z 1812/1918 VRB05KT CAVOK TX33/1815Z TN17/1905Z
BECMG 1812/1813 23011KT
PROB30 TEMPO 1812/1819 23015G25KT
TEMPO 1822/1909 VRB05KT
BECMG 1909/1911 23011KT
PROB30 TEMPO 1912/1918 23015G25KT